createdAt,value
2023-03-03T00:00:05.641Z,25.83
2023-03-03T00:02:32.614Z,25.02
2023-03-03T00:04:59.635Z,25.47
2023-03-03T00:07:26.589Z,27.23
2023-03-03T00:09:53.522Z,23.98
2023-03-03T00:12:24.186Z,28.55
2023-03-03T00:14:51.336Z,26.95
2023-03-03T00:17:22.283Z,24.73
2023-03-03T00:19:49.750Z,32.85
2023-03-03T00:22:21.261Z,45.30
2023-03-03T00:24:49.915Z,43.05
2023-03-03T00:27:18.942Z,57.05
2023-03-03T00:29:48.630Z,42.43
2023-03-03T00:32:22.514Z,38.38
2023-03-03T00:34:50.195Z,30.92
2023-03-03T00:37:22.245Z,29.80
2023-03-03T00:39:49.331Z,30.08
2023-03-03T00:42:17.128Z,28.23
2023-03-03T00:44:44.837Z,27.55
2023-03-03T00:47:31.672Z,28.55
2023-03-03T00:50:23.872Z,27.55
2023-03-03T00:52:58.583Z,25.55
2023-03-03T00:55:25.570Z,31.77
2023-03-03T00:57:52.709Z,43.47
2023-03-03T01:00:20.026Z,31.60
2023-03-03T01:02:48.569Z,27.50
2023-03-03T01:05:16.753Z,24.85
2023-03-03T01:07:44.096Z,25.30
2023-03-03T01:10:13.029Z,25.33
2023-03-03T01:12:40.230Z,25.52
2023-03-03T01:15:08.442Z,24.67
2023-03-03T01:17:36.007Z,27.55
2023-03-03T01:20:03.436Z,27.33
2023-03-03T01:22:30.308Z,26.38
2023-03-03T01:24:59.231Z,28.73
2023-03-03T01:27:28.854Z,25.13
2023-03-03T01:29:56.918Z,26.10
2023-03-03T01:32:24.361Z,31.43
2023-03-03T01:34:51.352Z,26.13
2023-03-03T01:37:18.225Z,24.55
2023-03-03T01:39:48.162Z,26.00
2023-03-03T01:42:15.948Z,25.25
2023-03-03T01:44:44.428Z,23.77
2023-03-03T01:47:12.864Z,23.45
2023-03-03T01:49:43.898Z,22.40
2023-03-03T01:52:12.868Z,21.23
2023-03-03T01:54:42.127Z,21.15
2023-03-03T01:57:12.812Z,21.43
2023-03-03T01:59:42.735Z,20.63
2023-03-03T02:02:11.370Z,19.73
2023-03-03T02:04:38.341Z,17.88
2023-03-03T02:07:07.541Z,18.42
2023-03-03T02:09:37.838Z,17.33
2023-03-03T02:12:07.181Z,16.08
2023-03-03T02:14:34.682Z,16.63
2023-03-03T02:17:01.704Z,15.38
2023-03-03T02:19:34.118Z,14.05
2023-03-03T02:22:02.630Z,15.07
2023-03-03T02:24:31.786Z,15.68
2023-03-03T02:27:00.228Z,15.38
2023-03-03T02:29:27.178Z,16.40
2023-03-03T02:31:54.138Z,14.68
2023-03-03T02:34:21.144Z,15.50
2023-03-03T02:36:48.256Z,16.85
2023-03-03T02:39:18.390Z,17.33
2023-03-03T02:41:48.076Z,18.80
2023-03-03T02:44:17.262Z,17.85
2023-03-03T02:46:45.246Z,18.87
2023-03-03T02:49:13.660Z,17.23
2023-03-03T02:51:40.980Z,17.85
2023-03-03T02:54:08.855Z,19.33
2023-03-03T02:56:36.317Z,20.52
2023-03-03T02:59:03.978Z,20.93
2023-03-03T03:01:37.313Z,20.35
2023-03-03T03:04:08.329Z,20.67
2023-03-03T03:06:36.284Z,20.58
2023-03-03T03:09:03.465Z,20.80
2023-03-03T03:11:30.848Z,20.37
2023-03-03T03:13:57.807Z,19.50
2023-03-03T03:16:24.757Z,20.48
2023-03-03T03:18:53.440Z,19.65
2023-03-03T03:21:20.302Z,21.45
2023-03-03T03:23:49.402Z,20.77
2023-03-03T03:26:16.318Z,21.05
2023-03-03T03:28:43.313Z,20.60
2023-03-03T03:31:10.513Z,20.33
2023-03-03T03:33:37.494Z,19.33
2023-03-03T03:36:06.563Z,19.87
2023-03-03T03:38:33.790Z,18.75
2023-03-03T03:41:00.926Z,20.50
2023-03-03T03:43:28.198Z,31.60
2023-03-03T03:45:55.414Z,26.92
2023-03-03T03:48:22.365Z,24.55
2023-03-03T03:50:49.462Z,25.30
2023-03-03T03:53:18.120Z,23.90
2023-03-03T03:55:45.445Z,25.23
2023-03-03T03:58:13.024Z,25.02
2023-03-03T04:00:40.324Z,24.17
2023-03-03T04:03:07.450Z,23.27
2023-03-03T04:05:34.628Z,21.95
2023-03-03T04:08:01.531Z,22.90
2023-03-03T04:10:30.143Z,22.80
2023-03-03T04:12:57.186Z,23.20
2023-03-03T04:15:24.281Z,24.10
2023-03-03T04:17:51.321Z,24.38
2023-03-03T04:20:18.431Z,24.15
2023-03-03T04:22:45.523Z,20.50
2023-03-03T04:25:14.367Z,22.13
2023-03-03T04:27:43.393Z,26.10
2023-03-03T04:30:14.335Z,24.00
2023-03-03T04:32:41.361Z,21.65
2023-03-03T04:35:09.017Z,22.55
2023-03-03T04:37:36.321Z,23.73
2023-03-03T04:40:03.542Z,21.70
2023-03-03T04:42:30.491Z,19.60
2023-03-03T04:44:58.858Z,20.33
2023-03-03T04:47:25.932Z,21.02
2023-03-03T04:49:53.185Z,20.30
2023-03-03T04:52:20.277Z,21.40
2023-03-03T04:54:47.270Z,21.58
2023-03-03T04:57:14.275Z,20.25
2023-03-03T04:59:41.178Z,22.00
2023-03-03T05:02:09.614Z,24.30
2023-03-03T05:04:36.784Z,26.00
2023-03-03T05:07:04.188Z,24.88
2023-03-03T05:09:31.170Z,24.38
2023-03-03T05:11:58.172Z,23.83
2023-03-03T05:14:25.486Z,21.13
2023-03-03T05:16:52.610Z,23.13
2023-03-03T05:19:20.942Z,24.83
2023-03-03T05:21:47.860Z,24.15
2023-03-03T05:24:14.859Z,24.92
2023-03-03T05:26:42.071Z,24.00
2023-03-03T05:29:09.525Z,23.80
2023-03-03T05:31:36.704Z,23.35
2023-03-03T05:34:03.688Z,22.27
2023-03-03T05:36:32.103Z,22.40
2023-03-03T05:38:59.043Z,22.90
2023-03-03T05:41:26.076Z,24.45
2023-03-03T05:43:53.142Z,22.73
2023-03-03T05:46:20.229Z,25.55
2023-03-03T05:48:47.335Z,23.63
2023-03-03T05:51:14.422Z,30.30
2023-03-03T05:53:42.767Z,28.63
2023-03-03T05:56:09.740Z,27.95
2023-03-03T05:58:37.091Z,23.10
2023-03-03T06:01:04.267Z,24.63
2023-03-03T06:03:31.900Z,24.83
2023-03-03T06:05:59.035Z,25.60
2023-03-03T06:08:26.058Z,25.02
2023-03-03T06:10:55.146Z,25.80
2023-03-03T06:13:23.373Z,27.33
2023-03-03T06:15:50.435Z,27.47
2023-03-03T06:18:17.451Z,26.88
2023-03-03T06:20:44.473Z,28.10
2023-03-03T06:23:11.425Z,28.50
2023-03-03T06:25:39.413Z,28.63
2023-03-03T06:28:07.866Z,27.30
2023-03-03T06:30:34.999Z,28.55
2023-03-03T06:33:02.186Z,29.25
2023-03-03T06:35:29.031Z,30.42
2023-03-03T06:37:56.590Z,34.83
2023-03-03T06:40:26.408Z,34.10
2023-03-03T06:42:53.790Z,35.03
2023-03-03T06:45:22.308Z,36.55
2023-03-03T06:47:49.743Z,39.63
2023-03-03T06:50:18.909Z,37.63
2023-03-03T06:52:45.838Z,36.60
2023-03-03T06:55:18.051Z,37.40
2023-03-03T06:57:45.082Z,66.63
2023-03-03T07:00:16.906Z,36.58
2023-03-03T07:02:45.667Z,33.97
2023-03-03T07:05:14.625Z,34.73
2023-03-03T07:07:43.664Z,28.85
2023-03-03T07:10:18.592Z,24.13
2023-03-03T07:12:46.575Z,22.88
2023-03-03T07:15:15.611Z,22.35
2023-03-03T07:17:44.648Z,21.30
2023-03-03T07:20:17.106Z,20.17
2023-03-03T07:22:44.266Z,18.67
2023-03-03T07:25:19.457Z,23.63
2023-03-03T07:27:46.570Z,18.63
2023-03-03T07:30:20.477Z,18.77
2023-03-03T07:32:47.569Z,20.05
2023-03-03T07:35:27.339Z,20.75
2023-03-03T07:37:54.517Z,20.35
2023-03-03T07:40:27.955Z,21.55
2023-03-03T07:42:55.295Z,19.87
2023-03-03T07:45:25.093Z,18.45
2023-03-03T07:47:52.108Z,19.20
2023-03-03T07:50:20.251Z,18.77
2023-03-03T07:52:57.042Z,18.50
2023-03-03T07:55:29.702Z,18.30
2023-03-03T07:58:16.696Z,16.77
2023-03-03T08:01:10.820Z,17.13
2023-03-03T08:03:37.978Z,15.38
2023-03-03T08:06:26.532Z,15.75
2023-03-03T08:08:55.314Z,17.37
2023-03-03T08:11:22.260Z,16.45
2023-03-03T08:13:49.233Z,14.60
2023-03-03T08:16:30.951Z,17.92
2023-03-03T08:18:58.816Z,15.70
2023-03-03T08:21:26.558Z,15.80
2023-03-03T08:23:55.008Z,14.93
2023-03-03T08:26:22.671Z,17.15
2023-03-03T08:28:52.035Z,13.75
2023-03-03T08:31:34.385Z,14.25
2023-03-03T08:34:06.596Z,13.77
2023-03-03T08:36:34.816Z,15.20
2023-03-03T08:39:28.304Z,14.70
2023-03-03T08:42:22.268Z,17.55
2023-03-03T08:44:54.684Z,18.23
2023-03-03T08:47:21.950Z,17.77
2023-03-03T08:49:49.045Z,22.67
2023-03-03T08:52:15.951Z,24.52
2023-03-03T08:54:44.770Z,29.38
2023-03-03T08:57:15.461Z,33.53
2023-03-03T08:59:43.368Z,31.50
2023-03-03T09:02:11.802Z,26.40
2023-03-03T09:04:38.816Z,23.00
2023-03-03T09:07:05.924Z,21.65
2023-03-03T09:09:35.046Z,19.23
2023-03-03T09:12:07.805Z,21.17
2023-03-03T09:14:34.834Z,19.92
2023-03-03T09:17:19.851Z,17.63
2023-03-03T09:19:49.843Z,16.02
2023-03-03T09:22:19.995Z,16.38
2023-03-03T09:24:47.742Z,16.53
2023-03-03T09:27:23.312Z,16.23
2023-03-03T09:29:50.521Z,16.02
2023-03-03T09:32:27.399Z,16.35
2023-03-03T09:35:20.058Z,14.93
2023-03-03T09:37:50.104Z,15.37
2023-03-03T09:40:40.222Z,13.43
2023-03-03T09:43:19.567Z,15.57
2023-03-03T09:45:52.909Z,13.02
2023-03-03T09:48:44.068Z,13.40
2023-03-03T09:51:22.053Z,14.07
2023-03-03T09:54:00.032Z,10.70
2023-03-03T09:56:31.501Z,10.10
2023-03-03T09:59:07.374Z,12.10
2023-03-03T10:01:43.175Z,12.07
2023-03-03T10:04:36.882Z,9.60
2023-03-03T10:07:16.385Z,13.45
2023-03-03T10:09:59.284Z,12.80
2023-03-03T10:12:28.860Z,15.65
2023-03-03T10:15:13.382Z,16.38
2023-03-03T10:17:48.594Z,15.47
2023-03-03T10:20:47.522Z,13.57
2023-03-03T10:23:32.848Z,14.13
2023-03-03T10:26:08.472Z,18.50
2023-03-03T10:28:57.412Z,13.43
2023-03-03T10:31:30.394Z,14.00
2023-03-03T10:34:00.591Z,13.38
2023-03-03T10:36:35.021Z,13.25
2023-03-03T10:39:17.271Z,14.25
2023-03-03T10:41:53.703Z,13.73
2023-03-03T10:44:27.734Z,15.30
2023-03-03T10:47:00.200Z,15.13
2023-03-03T10:49:35.107Z,13.88
2023-03-03T10:52:08.978Z,13.20
2023-03-03T10:54:46.473Z,13.00
2023-03-03T10:57:17.980Z,12.27
2023-03-03T10:59:55.221Z,11.50
2023-03-03T11:02:23.865Z,12.40
2023-03-03T11:05:05.652Z,10.77
2023-03-03T11:07:35.488Z,9.48
2023-03-03T11:10:15.537Z,9.27
2023-03-03T11:12:49.558Z,8.70
2023-03-03T11:15:24.373Z,10.65
2023-03-03T11:18:00.381Z,10.35
2023-03-03T11:20:31.649Z,10.07
2023-03-03T11:23:02.573Z,11.13
2023-03-03T11:25:32.603Z,9.98
2023-03-03T11:28:19.170Z,10.52
2023-03-03T11:30:54.077Z,10.32
2023-03-03T11:33:22.941Z,10.82
2023-03-03T11:35:52.239Z,11.13
2023-03-03T11:38:32.977Z,9.52
2023-03-03T11:41:07.446Z,11.13
2023-03-03T11:43:38.595Z,12.25
2023-03-03T11:46:08.093Z,11.48
2023-03-03T11:48:38.234Z,11.23
2023-03-03T11:51:06.774Z,13.07
2023-03-03T11:53:41.975Z,12.70
2023-03-03T11:56:21.278Z,12.63
2023-03-03T11:58:56.136Z,13.80
2023-03-03T12:01:23.985Z,13.37
2023-03-03T12:03:54.545Z,15.80
2023-03-03T12:06:25.470Z,15.60
2023-03-03T12:09:16.609Z,13.95
2023-03-03T12:11:48.322Z,15.32
2023-03-03T12:14:25.303Z,13.70
2023-03-03T12:16:55.878Z,12.68
2023-03-03T12:19:28.130Z,12.30
2023-03-03T12:22:12.202Z,13.10
2023-03-03T12:25:00.436Z,13.45
2023-03-03T12:27:30.838Z,11.83
2023-03-03T12:30:06.390Z,12.73
2023-03-03T12:32:41.404Z,13.13
2023-03-03T12:35:20.717Z,12.70
2023-03-03T12:37:51.444Z,12.85
2023-03-03T12:40:19.662Z,13.60
2023-03-03T12:42:58.919Z,13.55
2023-03-03T12:45:51.383Z,11.98
2023-03-03T12:48:21.652Z,10.77
2023-03-03T12:50:56.150Z,9.68
2023-03-03T12:53:30.758Z,10.73
2023-03-03T12:56:02.844Z,10.57
2023-03-03T12:58:35.387Z,10.82
2023-03-03T13:01:07.407Z,11.50
2023-03-03T13:03:55.016Z,10.93
2023-03-03T13:06:27.565Z,10.63
2023-03-03T13:09:02.157Z,14.48
2023-03-03T13:11:54.086Z,11.93
2023-03-03T13:14:26.278Z,12.43
2023-03-03T13:17:00.869Z,13.48
2023-03-03T13:19:32.524Z,16.87
2023-03-03T13:22:01.597Z,14.18
2023-03-03T13:24:33.369Z,14.70
2023-03-03T13:27:02.677Z,15.15
2023-03-03T13:29:31.912Z,14.35
2023-03-03T13:32:00.762Z,14.27
2023-03-03T13:34:41.459Z,15.45
2023-03-03T13:37:11.854Z,15.02
2023-03-03T13:39:43.010Z,14.18
2023-03-03T13:42:18.112Z,14.07
2023-03-03T13:44:46.155Z,16.00
2023-03-03T13:47:17.105Z,15.07
2023-03-03T13:49:56.215Z,15.98
2023-03-03T13:52:24.653Z,15.30
2023-03-03T13:55:09.018Z,15.90
2023-03-03T13:57:41.803Z,14.33
2023-03-03T14:00:15.054Z,11.95
2023-03-03T14:02:49.476Z,14.82
2023-03-03T14:05:22.997Z,15.32
2023-03-03T14:07:52.933Z,16.38
2023-03-03T14:10:21.973Z,16.47
2023-03-03T14:12:51.472Z,16.40
2023-03-03T14:15:22.167Z,16.80
2023-03-03T14:18:10.126Z,18.23
2023-03-03T14:20:41.395Z,15.98
2023-03-03T14:23:13.174Z,17.27
2023-03-03T14:25:59.509Z,17.13
2023-03-03T14:28:27.800Z,16.95
2023-03-03T14:30:55.728Z,16.92
2023-03-03T14:33:27.235Z,17.25
2023-03-03T14:36:06.302Z,15.87
2023-03-03T14:38:37.915Z,15.90
2023-03-03T14:41:12.221Z,16.55
2023-03-03T14:43:40.276Z,14.88
2023-03-03T14:46:33.676Z,15.25
2023-03-03T14:49:01.225Z,16.27
2023-03-03T14:51:31.651Z,16.13
2023-03-03T14:53:58.907Z,15.55
2023-03-03T14:56:26.558Z,15.20
2023-03-03T14:58:54.377Z,15.65
2023-03-03T15:01:23.472Z,16.10
2023-03-03T15:03:58.108Z,15.50
2023-03-03T15:06:30.817Z,15.43
2023-03-03T15:09:00.155Z,13.18
2023-03-03T15:11:33.049Z,13.93
2023-03-03T15:14:12.040Z,14.27
2023-03-03T15:16:40.275Z,14.60
2023-03-03T15:19:15.246Z,14.98
2023-03-03T15:21:46.029Z,15.90
2023-03-03T15:24:17.278Z,16.13
2023-03-03T15:26:46.390Z,16.07
2023-03-03T15:29:16.667Z,18.65
2023-03-03T15:31:51.118Z,20.98
2023-03-03T15:34:26.417Z,15.48
2023-03-03T15:36:58.390Z,16.27
2023-03-03T15:39:29.110Z,14.60
2023-03-03T15:42:03.210Z,14.65
2023-03-03T15:44:34.150Z,16.17
2023-03-03T15:47:06.403Z,15.20
2023-03-03T15:49:54.328Z,16.42
2023-03-03T15:52:27.838Z,14.40
2023-03-03T15:55:00.994Z,18.73
2023-03-03T15:57:33.599Z,24.45
2023-03-03T16:00:07.024Z,24.48
2023-03-03T16:02:42.632Z,25.05
2023-03-03T16:05:15.557Z,25.20
2023-03-03T16:07:47.937Z,23.17
2023-03-03T16:10:22.634Z,21.33
2023-03-03T16:12:55.369Z,21.55
2023-03-03T16:15:28.164Z,22.05
2023-03-03T16:17:59.303Z,22.20
2023-03-03T16:20:29.625Z,18.60
2023-03-03T16:23:16.668Z,17.83
2023-03-03T16:25:57.357Z,16.73
2023-03-03T16:28:26.264Z,24.77
2023-03-03T16:30:57.514Z,17.70
2023-03-03T16:33:28.220Z,18.65
2023-03-03T16:36:01.483Z,20.55
2023-03-03T16:38:32.638Z,21.73
2023-03-03T16:41:01.096Z,22.00
2023-03-03T16:43:32.477Z,21.15
2023-03-03T16:46:06.073Z,22.88
2023-03-03T16:48:38.322Z,22.98
2023-03-03T16:51:13.419Z,25.08
2023-03-03T16:53:48.426Z,23.77
2023-03-03T16:56:18.416Z,24.98
2023-03-03T16:58:50.841Z,26.25
2023-03-03T17:01:22.465Z,28.42
2023-03-03T17:04:04.383Z,30.17
2023-03-03T17:06:34.706Z,32.28
2023-03-03T17:09:30.323Z,30.93
2023-03-03T17:12:27.943Z,32.28
2023-03-03T17:15:01.575Z,29.05
2023-03-03T17:17:32.065Z,28.60
2023-03-03T17:20:03.902Z,28.73
2023-03-03T17:22:40.100Z,27.03
2023-03-03T17:25:12.761Z,24.70
2023-03-03T17:27:47.386Z,22.67
2023-03-03T17:30:17.090Z,24.02
2023-03-03T17:32:54.117Z,22.77
2023-03-03T17:35:28.580Z,23.33
2023-03-03T17:38:00.859Z,24.95
2023-03-03T17:40:46.127Z,24.98
2023-03-03T17:43:15.688Z,25.10
2023-03-03T17:45:44.491Z,31.45
2023-03-03T17:48:21.870Z,31.83
2023-03-03T17:51:08.566Z,28.95
2023-03-03T17:53:42.925Z,31.55
2023-03-03T17:56:17.980Z,30.83
2023-03-03T17:59:05.452Z,32.08
2023-03-03T18:01:41.055Z,31.47
2023-03-03T18:04:31.096Z,33.50
2023-03-03T18:07:13.251Z,32.05
2023-03-03T18:09:48.065Z,45.83
2023-03-03T18:12:18.845Z,31.30
2023-03-03T18:14:58.910Z,35.17
2023-03-03T18:17:34.449Z,29.17
2023-03-03T18:20:31.607Z,31.48
2023-03-03T18:23:18.842Z,31.75
2023-03-03T18:25:55.320Z,26.67
2023-03-03T18:28:36.901Z,22.08
2023-03-03T18:31:15.979Z,20.33
2023-03-03T18:33:44.833Z,21.23
2023-03-03T18:36:15.843Z,19.08
2023-03-03T18:38:45.222Z,20.55
2023-03-03T18:41:13.357Z,23.25
2023-03-03T18:43:54.775Z,25.60
2023-03-03T18:46:40.674Z,26.65
2023-03-03T18:49:09.500Z,27.83
2023-03-03T18:51:50.199Z,28.95
2023-03-03T18:54:30.956Z,25.23
2023-03-03T18:57:12.042Z,24.77
2023-03-03T18:59:39.992Z,24.23
2023-03-03T19:02:11.309Z,30.10
2023-03-03T19:04:42.200Z,31.75
2023-03-03T19:07:18.697Z,32.70
2023-03-03T19:09:52.666Z,35.08
2023-03-03T19:12:39.890Z,37.75
2023-03-03T19:15:11.086Z,38.03
2023-03-03T19:17:49.226Z,32.08
2023-03-03T19:20:18.593Z,28.52
2023-03-03T19:22:46.998Z,26.77
2023-03-03T19:25:24.877Z,26.67
2023-03-03T19:28:01.307Z,28.17
2023-03-03T19:30:36.488Z,32.67
2023-03-03T19:33:18.480Z,37.35
2023-03-03T19:35:54.192Z,42.15
2023-03-03T19:38:27.396Z,34.58
2023-03-03T19:41:00.589Z,31.77
2023-03-03T19:43:36.827Z,31.93
2023-03-03T19:46:15.700Z,31.83
2023-03-03T19:48:48.771Z,33.42
2023-03-03T19:51:22.612Z,34.13
2023-03-03T19:53:54.086Z,33.03
2023-03-03T19:56:26.087Z,35.90
2023-03-03T19:59:01.765Z,37.92
2023-03-03T20:01:33.961Z,40.20
2023-03-03T20:04:14.168Z,39.55
2023-03-03T20:06:49.416Z,44.75
2023-03-03T20:09:22.033Z,42.47
2023-03-03T20:11:59.844Z,47.47
2023-03-03T20:14:36.667Z,47.80
2023-03-03T20:17:13.512Z,45.75
2023-03-03T20:19:47.352Z,47.22
2023-03-03T20:22:19.877Z,49.47
2023-03-03T20:25:02.163Z,44.90
2023-03-03T20:27:32.694Z,35.78
2023-03-03T20:30:06.474Z,31.67
2023-03-03T20:32:37.522Z,30.23
2023-03-03T20:35:13.068Z,26.47
2023-03-03T20:37:49.121Z,25.67
2023-03-03T20:40:21.990Z,27.08
2023-03-03T20:42:52.988Z,28.23
2023-03-03T20:45:25.586Z,31.08
2023-03-03T20:47:57.238Z,32.27
2023-03-03T20:50:28.087Z,29.25
2023-03-03T20:53:07.782Z,30.55
2023-03-03T20:55:41.451Z,30.40
2023-03-03T20:58:11.770Z,30.65
2023-03-03T21:00:40.648Z,29.80
2023-03-03T21:03:11.382Z,32.38
2023-03-03T21:05:53.506Z,29.65
2023-03-03T21:08:39.263Z,30.63
2023-03-03T21:11:08.175Z,28.30
2023-03-03T21:13:37.401Z,122.60
2023-03-03T21:16:09.147Z,39.67
2023-03-03T21:18:36.382Z,34.67
2023-03-03T21:21:03.603Z,30.40
2023-03-03T21:23:32.274Z,35.58
2023-03-03T21:25:59.604Z,36.47
2023-03-03T21:28:27.711Z,35.88
2023-03-03T21:31:08.845Z,37.17
2023-03-03T21:33:46.284Z,35.42
2023-03-03T21:36:15.151Z,31.30
2023-03-03T21:38:45.437Z,30.23
2023-03-03T21:41:14.013Z,33.15
2023-03-03T21:43:41.787Z,30.80
2023-03-03T21:46:09.018Z,30.60
2023-03-03T21:48:39.645Z,30.92
2023-03-03T21:51:07.064Z,31.43
2023-03-03T21:53:34.103Z,31.25
2023-03-03T21:56:02.536Z,29.55
2023-03-03T21:58:30.032Z,30.15
2023-03-03T22:00:57.087Z,28.70
2023-03-03T22:03:24.119Z,30.52
2023-03-03T22:05:51.397Z,30.48
2023-03-03T22:08:22.775Z,29.67
2023-03-03T22:10:53.914Z,26.88
2023-03-03T22:13:22.308Z,25.75
2023-03-03T22:15:49.285Z,26.07
2023-03-03T22:18:18.501Z,25.65
2023-03-03T22:20:45.978Z,26.70
2023-03-03T22:23:12.973Z,24.15
2023-03-03T22:25:40.063Z,23.17
2023-03-03T22:28:07.297Z,22.03
2023-03-03T22:30:36.153Z,22.55
2023-03-03T22:33:03.317Z,23.10
2023-03-03T22:35:30.447Z,23.63
2023-03-03T22:37:57.545Z,23.83
2023-03-03T22:40:24.936Z,24.53
2023-03-03T22:42:52.172Z,25.48
2023-03-03T22:45:19.375Z,27.10
2023-03-03T22:47:47.800Z,25.15
2023-03-03T22:50:15.188Z,26.38
2023-03-03T22:52:42.348Z,24.63
2023-03-03T22:55:10.356Z,24.25
2023-03-03T22:57:37.414Z,21.75
2023-03-03T23:00:06.432Z,23.30
2023-03-03T23:02:33.675Z,20.60
2023-03-03T23:05:07.865Z,21.40
2023-03-03T23:07:35.501Z,18.75
2023-03-03T23:10:02.646Z,21.52
2023-03-03T23:12:29.705Z,21.75
2023-03-03T23:14:57.066Z,24.83
2023-03-03T23:17:24.009Z,23.77
2023-03-03T23:19:51.308Z,25.02
2023-03-03T23:22:19.874Z,26.35
2023-03-03T23:24:46.898Z,24.83
2023-03-03T23:27:13.821Z,27.20
2023-03-03T23:29:40.932Z,26.67
2023-03-03T23:32:08.570Z,27.08
2023-03-03T23:34:35.520Z,30.08
2023-03-03T23:37:02.501Z,31.45
2023-03-03T23:39:31.365Z,33.65
2023-03-03T23:41:58.307Z,35.45
2023-03-03T23:44:25.338Z,34.50
2023-03-03T23:46:52.454Z,31.50
2023-03-03T23:49:19.577Z,26.27
2023-03-03T23:51:46.931Z,26.67
2023-03-03T23:54:14.122Z,25.87
2023-03-03T23:56:42.503Z,25.65
2023-03-03T23:59:09.648Z,24.52
